Meteo Giornale » Osservazioni meteo Italia » Lamezia Terme

ore: 08:50 - Osservazioni Meteo Lamezia Terme
Lat. 38° 54' N Lon. 16° 15' E Alt. 15 metri s.l.m.

poco_nuvoloso Europe/Rome

25 °C

Poco Nuvoloso

Temp. 24 Ore

19 °C

28 °C

Nord

5.5 Km/h

Dew point 20 °C

Umidità 73 %

Visibilità  10 Km

Il sole sorge alle ore 06:09

Il sole tramonta alle ore 19:48

Data e Ora Cielo e Fenomeni T °C DP °C Um. % Pres. hPa Vis. km Vento km/h
Oggi h: 08:50 poco_nuvoloso Poco Nuvoloso 25 20 73 1014 10 N 5.5
Oggi h: 07:50 sereno Sereno 22 20 88 1014 10 E 7.4
Oggi h: 06:50 poco_nuvoloso Poco Nuvoloso 19 18 93 1014 10 E 11.1
Oggi h: 05:50 poco_nuvoloso Poco Nuvoloso 19 18 93 1014 10 E 7.4
Oggi h: 03:50 poco_nuvoloso Poco Nuvoloso 20 18 88 1013 10 E 11.1
Oggi h: 01:50 poco_nuvoloso Poco Nuvoloso 20 19 93 1013 10 E 11.1
Oggi h: 00:50 poco_nuvoloso Poco Nuvoloso 20 19 93 1014 10 E 7.4
Ieri h: 23:50 poco_nuvoloso Poco Nuvoloso 21 19 88 1014 10 N 5.5
Ieri h: 22:50 poco_nuvoloso Poco Nuvoloso 21 19 88 1013 10 E 7.4
Ieri h: 21:50 poco_nuvoloso Poco Nuvoloso 22 21 94 1013 10 E 7.4
Ieri h: 20:50 poco_nuvoloso Poco Nuvoloso 23 20 83 1013 10 E 7.4
Ieri h: 19:50 poco_nuvoloso Poco Nuvoloso 25 20 73 1012 10 O/SO 7.4
Ieri h: 18:50 nuvoloso Nuvoloso 26 20 69 1012 10 O 16.7
Ieri h: 17:50 nuvoloso Nuvoloso 25 22 83 1012 10 N 0
Ieri h: 16:50 coperto_pioggia Pioggia Debole 24 19 73 1013 10 O 14.8
Ieri h: 15:50 nuvoloso Nuvoloso 28 20 61 1012 10 O 20.3
Ieri h: 14:50 nuvoloso Nuvoloso 28 20 61 1012 10 O 22.2
Ieri h: 13:50 poco_nuvoloso Poco Nuvoloso 28 20 61 1012 10 O 22.2
Ieri h: 12:50 poco_nuvoloso Poco Nuvoloso 28 20 61 1012 10 O 22.2
Ieri h: 11:50 poco_nuvoloso Poco Nuvoloso 27 20 65 1012 10 O/SO 18.5
Ieri h: 10:50 poco_nuvoloso Poco Nuvoloso 26 20 69 1013 10 O/SO 11.1
Ieri h: 09:50 poco_nuvoloso Poco Nuvoloso 26 19 65 1012 10 N 5.5